sensor_id;sensor_type;location;lat;lon;timestamp;P1;durP1;ratioP1;P2;durP2;ratioP2
17424;SDS011;8830;50.978;5.058;2023-04-25T00:00:27;12.90;;;4.30;;
17424;SDS011;8830;50.978;5.058;2023-04-25T00:02:54;11.37;;;4.97;;
17424;SDS011;8830;50.978;5.058;2023-04-25T00:05:22;13.40;;;4.37;;
17424;SDS011;8830;50.978;5.058;2023-04-25T00:07:49;10.77;;;4.57;;
17424;SDS011;8830;50.978;5.058;2023-04-25T00:10:19;13.03;;;4.50;;
17424;SDS011;8830;50.978;5.058;2023-04-25T00:12:46;10.47;;;4.23;;
17424;SDS011;8830;50.978;5.058;2023-04-25T00:15:14;14.70;;;4.73;;
17424;SDS011;8830;50.978;5.058;2023-04-25T00:17:41;16.50;;;4.40;;
17424;SDS011;8830;50.978;5.058;2023-04-25T00:20:11;13.07;;;4.47;;
17424;SDS011;8830;50.978;5.058;2023-04-25T00:22:38;13.53;;;5.07;;
17424;SDS011;8830;50.978;5.058;2023-04-25T00:25:05;17.00;;;5.67;;
17424;SDS011;8830;50.978;5.058;2023-04-25T00:27:35;12.53;;;4.97;;
17424;SDS011;8830;50.978;5.058;2023-04-25T00:30:04;10.17;;;4.30;;
17424;SDS011;8830;50.978;5.058;2023-04-25T00:32:32;13.13;;;4.33;;
17424;SDS011;8830;50.978;5.058;2023-04-25T00:35:01;13.57;;;4.53;;
17424;SDS011;8830;50.978;5.058;2023-04-25T00:37:28;9.57;;;4.13;;
17424;SDS011;8830;50.978;5.058;2023-04-25T00:39:57;13.27;;;4.20;;
17424;SDS011;8830;50.978;5.058;2023-04-25T00:42:24;17.10;;;4.87;;
17424;SDS011;8830;50.978;5.058;2023-04-25T00:44:53;14.47;;;3.87;;
17424;SDS011;8830;50.978;5.058;2023-04-25T00:47:20;13.73;;;4.27;;
17424;SDS011;8830;50.978;5.058;2023-04-25T00:49:48;9.07;;;4.47;;
17424;SDS011;8830;50.978;5.058;2023-04-25T00:52:15;10.07;;;4.20;;
17424;SDS011;8830;50.978;5.058;2023-04-25T00:54:42;7.17;;;3.80;;
17424;SDS011;8830;50.978;5.058;2023-04-25T00:57:12;13.13;;;4.20;;
17424;SDS011;8830;50.978;5.058;2023-04-25T00:59:40;11.43;;;4.90;;
17424;SDS011;8830;50.978;5.058;2023-04-25T01:02:12;14.33;;;4.60;;
17424;SDS011;8830;50.978;5.058;2023-04-25T01:04:40;11.43;;;4.73;;
17424;SDS011;8830;50.978;5.058;2023-04-25T01:07:07;9.20;;;4.00;;
17424;SDS011;8830;50.978;5.058;2023-04-25T01:09:35;9.10;;;4.57;;
17424;SDS011;8830;50.978;5.058;2023-04-25T01:12:02;10.87;;;4.50;;
17424;SDS011;8830;50.978;5.058;2023-04-25T01:14:29;10.73;;;4.50;;
17424;SDS011;8830;50.978;5.058;2023-04-25T01:16:57;10.90;;;4.73;;
17424;SDS011;8830;50.978;5.058;2023-04-25T01:19:26;15.27;;;5.47;;
17424;SDS011;8830;50.978;5.058;2023-04-25T01:21:55;16.90;;;5.03;;
17424;SDS011;8830;50.978;5.058;2023-04-25T01:24:22;14.80;;;4.70;;
17424;SDS011;8830;50.978;5.058;2023-04-25T01:26:49;15.30;;;5.20;;
17424;SDS011;8830;50.978;5.058;2023-04-25T01:29:18;12.97;;;4.60;;
17424;SDS011;8830;50.978;5.058;2023-04-25T01:31:46;10.20;;;4.23;;
17424;SDS011;8830;50.978;5.058;2023-04-25T01:34:13;16.10;;;4.63;;
17424;SDS011;8830;50.978;5.058;2023-04-25T01:36:40;15.43;;;5.40;;
17424;SDS011;8830;50.978;5.058;2023-04-25T01:39:09;12.43;;;5.17;;
17424;SDS011;8830;50.978;5.058;2023-04-25T01:41:36;15.73;;;4.70;;
17424;SDS011;8830;50.978;5.058;2023-04-25T01:44:05;18.47;;;4.70;;
17424;SDS011;8830;50.978;5.058;2023-04-25T01:46:33;13.73;;;4.80;;
17424;SDS011;8830;50.978;5.058;2023-04-25T01:49:00;14.17;;;4.90;;
17424;SDS011;8830;50.978;5.058;2023-04-25T01:51:28;11.27;;;4.63;;
17424;SDS011;8830;50.978;5.058;2023-04-25T01:53:55;10.47;;;4.17;;
17424;SDS011;8830;50.978;5.058;2023-04-25T01:56:24;15.90;;;4.67;;
17424;SDS011;8830;50.978;5.058;2023-04-25T01:58:56;11.80;;;4.47;;
17424;SDS011;8830;50.978;5.058;2023-04-25T02:01:24;17.50;;;5.50;;
17424;SDS011;8830;50.978;5.058;2023-04-25T02:03:51;17.27;;;4.33;;
17424;SDS011;8830;50.978;5.058;2023-04-25T02:06:18;15.50;;;4.33;;
17424;SDS011;8830;50.978;5.058;2023-04-25T02:08:45;19.47;;;4.70;;
17424;SDS011;8830;50.978;5.058;2023-04-25T02:11:12;11.33;;;4.47;;
17424;SDS011;8830;50.978;5.058;2023-04-25T02:13:41;12.00;;;4.63;;
17424;SDS011;8830;50.978;5.058;2023-04-25T02:16:08;5.97;;;4.07;;
17424;SDS011;8830;50.978;5.058;2023-04-25T02:18:35;14.17;;;4.73;;
17424;SDS011;8830;50.978;5.058;2023-04-25T02:21:02;13.43;;;4.23;;
17424;SDS011;8830;50.978;5.058;2023-04-25T02:23:31;14.87;;;4.40;;
17424;SDS011;8830;50.978;5.058;2023-04-25T02:25:58;16.60;;;5.10;;
17424;SDS011;8830;50.978;5.058;2023-04-25T02:28:25;11.80;;;4.40;;
17424;SDS011;8830;50.978;5.058;2023-04-25T02:30:53;14.97;;;5.10;;
17424;SDS011;8830;50.978;5.058;2023-04-25T02:33:22;10.87;;;4.37;;
17424;SDS011;8830;50.978;5.058;2023-04-25T02:35:49;15.60;;;5.33;;
17424;SDS011;8830;50.978;5.058;2023-04-25T02:38:16;11.20;;;4.50;;
17424;SDS011;8830;50.978;5.058;2023-04-25T02:40:43;14.50;;;4.70;;
17424;SDS011;8830;50.978;5.058;2023-04-25T02:43:10;9.03;;;4.37;;
17424;SDS011;8830;50.978;5.058;2023-04-25T02:45:38;17.27;;;5.37;;
17424;SDS011;8830;50.978;5.058;2023-04-25T02:48:06;14.07;;;5.00;;
17424;SDS011;8830;50.978;5.058;2023-04-25T02:50:36;18.37;;;5.07;;
17424;SDS011;8830;50.978;5.058;2023-04-25T02:53:03;18.97;;;5.13;;
17424;SDS011;8830;50.978;5.058;2023-04-25T02:55:30;15.97;;;5.00;;
17424;SDS011;8830;50.978;5.058;2023-04-25T02:57:57;19.50;;;5.00;;
17424;SDS011;8830;50.978;5.058;2023-04-25T03:00:25;9.70;;;4.77;;
17424;SDS011;8830;50.978;5.058;2023-04-25T03:02:54;15.60;;;5.23;;
17424;SDS011;8830;50.978;5.058;2023-04-25T03:05:25;11.97;;;5.40;;
17424;SDS011;8830;50.978;5.058;2023-04-25T03:07:53;19.00;;;5.50;;
17424;SDS011;8830;50.978;5.058;2023-04-25T03:10:20;17.80;;;5.37;;
17424;SDS011;8830;50.978;5.058;2023-04-25T03:12:47;14.17;;;4.60;;
17424;SDS011;8830;50.978;5.058;2023-04-25T03:15:15;16.20;;;4.87;;
17424;SDS011;8830;50.978;5.058;2023-04-25T03:17:42;10.37;;;4.43;;
17424;SDS011;8830;50.978;5.058;2023-04-25T03:20:11;9.97;;;4.93;;
17424;SDS011;8830;50.978;5.058;2023-04-25T03:22:42;12.37;;;5.10;;
17424;SDS011;8830;50.978;5.058;2023-04-25T03:25:11;15.67;;;4.90;;
17424;SDS011;8830;50.978;5.058;2023-04-25T03:27:38;11.20;;;4.53;;
17424;SDS011;8830;50.978;5.058;2023-04-25T03:30:06;14.57;;;5.03;;
17424;SDS011;8830;50.978;5.058;2023-04-25T03:32:34;14.13;;;5.33;;
17424;SDS011;8830;50.978;5.058;2023-04-25T03:35:01;13.57;;;5.10;;
17424;SDS011;8830;50.978;5.058;2023-04-25T03:37:29;12.57;;;4.77;;
17424;SDS011;8830;50.978;5.058;2023-04-25T03:39:58;18.67;;;5.47;;
17424;SDS011;8830;50.978;5.058;2023-04-25T03:42:25;15.43;;;5.00;;
17424;SDS011;8830;50.978;5.058;2023-04-25T03:44:52;16.50;;;5.63;;
17424;SDS011;8830;50.978;5.058;2023-04-25T03:47:19;14.50;;;5.23;;
17424;SDS011;8830;50.978;5.058;2023-04-25T03:49:47;15.23;;;5.40;;
17424;SDS011;8830;50.978;5.058;2023-04-25T03:52:17;19.40;;;4.90;;
17424;SDS011;8830;50.978;5.058;2023-04-25T03:54:49;13.30;;;5.33;;
17424;SDS011;8830;50.978;5.058;2023-04-25T03:57:18;14.47;;;5.67;;
17424;SDS011;8830;50.978;5.058;2023-04-25T03:59:45;13.60;;;5.47;;
17424;SDS011;8830;50.978;5.058;2023-04-25T04:02:15;16.87;;;4.87;;
17424;SDS011;8830;50.978;5.058;2023-04-25T04:04:43;10.70;;;5.07;;
17424;SDS011;8830;50.978;5.058;2023-04-25T04:07:10;8.10;;;4.97;;
17424;SDS011;8830;50.978;5.058;2023-04-25T04:09:37;16.57;;;5.40;;
17424;SDS011;8830;50.978;5.058;2023-04-25T04:12:05;12.23;;;5.10;;
17424;SDS011;8830;50.978;5.058;2023-04-25T04:14:33;10.93;;;4.60;;
17424;SDS011;8830;50.978;5.058;2023-04-25T04:17:01;12.07;;;4.70;;
17424;SDS011;8830;50.978;5.058;2023-04-25T04:19:28;9.57;;;5.50;;
17424;SDS011;8830;50.978;5.058;2023-04-25T04:21:55;7.43;;;4.63;;
17424;SDS011;8830;50.978;5.058;2023-04-25T04:24:23;10.27;;;4.37;;
17424;SDS011;8830;50.978;5.058;2023-04-25T04:26:50;8.67;;;4.90;;
17424;SDS011;8830;50.978;5.058;2023-04-25T04:29:18;8.40;;;4.17;;
17424;SDS011;8830;50.978;5.058;2023-04-25T04:31:50;10.50;;;4.20;;
17424;SDS011;8830;50.978;5.058;2023-04-25T04:34:17;14.00;;;5.10;;
17424;SDS011;8830;50.978;5.058;2023-04-25T04:36:46;12.07;;;4.97;;
17424;SDS011;8830;50.978;5.058;2023-04-25T04:39:14;14.03;;;4.80;;
17424;SDS011;8830;50.978;5.058;2023-04-25T04:41:41;11.17;;;4.00;;
17424;SDS011;8830;50.978;5.058;2023-04-25T04:44:08;7.70;;;4.73;;
17424;SDS011;8830;50.978;5.058;2023-04-25T04:46:36;9.60;;;4.67;;
17424;SDS011;8830;50.978;5.058;2023-04-25T04:49:08;6.70;;;4.43;;
17424;SDS011;8830;50.978;5.058;2023-04-25T04:51:37;10.60;;;4.50;;
17424;SDS011;8830;50.978;5.058;2023-04-25T04:54:04;11.43;;;4.77;;
17424;SDS011;8830;50.978;5.058;2023-04-25T04:56:31;9.50;;;4.70;;
17424;SDS011;8830;50.978;5.058;2023-04-25T04:58:59;10.43;;;5.03;;
17424;SDS011;8830;50.978;5.058;2023-04-25T05:01:27;9.90;;;4.63;;
17424;SDS011;8830;50.978;5.058;2023-04-25T05:03:54;12.10;;;5.50;;
17424;SDS011;8830;50.978;5.058;2023-04-25T05:06:26;11.83;;;5.23;;
17424;SDS011;8830;50.978;5.058;2023-04-25T05:08:55;15.13;;;6.43;;
17424;SDS011;8830;50.978;5.058;2023-04-25T05:11:23;17.03;;;7.33;;
17424;SDS011;8830;50.978;5.058;2023-04-25T05:13:51;13.63;;;6.27;;
17424;SDS011;8830;50.978;5.058;2023-04-25T05:16:18;12.77;;;7.00;;
17424;SDS011;8830;50.978;5.058;2023-04-25T05:18:46;15.77;;;7.03;;
17424;SDS011;8830;50.978;5.058;2023-04-25T05:21:13;15.03;;;7.23;;
17424;SDS011;8830;50.978;5.058;2023-04-25T05:23:43;17.20;;;6.60;;
17424;SDS011;8830;50.978;5.058;2023-04-25T05:26:11;14.70;;;7.30;;
17424;SDS011;8830;50.978;5.058;2023-04-25T05:28:39;19.00;;;8.13;;
17424;SDS011;8830;50.978;5.058;2023-04-25T05:31:07;14.90;;;6.97;;
17424;SDS011;8830;50.978;5.058;2023-04-25T05:33:35;12.77;;;7.03;;
17424;SDS011;8830;50.978;5.058;2023-04-25T05:36:03;23.43;;;8.17;;
17424;SDS011;8830;50.978;5.058;2023-04-25T05:38:30;17.60;;;8.57;;
17424;SDS011;8830;50.978;5.058;2023-04-25T05:40:59;16.83;;;7.23;;
17424;SDS011;8830;50.978;5.058;2023-04-25T05:43:26;28.07;;;9.17;;
17424;SDS011;8830;50.978;5.058;2023-04-25T05:45:53;16.40;;;7.23;;
17424;SDS011;8830;50.978;5.058;2023-04-25T05:48:20;17.80;;;6.93;;
17424;SDS011;8830;50.978;5.058;2023-04-25T05:50:48;33.43;;;8.57;;
17424;SDS011;8830;50.978;5.058;2023-04-25T05:53:16;19.30;;;7.27;;
17424;SDS011;8830;50.978;5.058;2023-04-25T05:55:44;16.83;;;7.90;;
17424;SDS011;8830;50.978;5.058;2023-04-25T05:58:13;21.37;;;8.17;;
17424;SDS011;8830;50.978;5.058;2023-04-25T06:00:41;23.37;;;7.77;;
17424;SDS011;8830;50.978;5.058;2023-04-25T06:03:09;15.33;;;7.80;;
17424;SDS011;8830;50.978;5.058;2023-04-25T06:05:38;20.60;;;7.80;;
17424;SDS011;8830;50.978;5.058;2023-04-25T06:08:09;17.53;;;7.13;;
17424;SDS011;8830;50.978;5.058;2023-04-25T06:10:53;16.33;;;6.67;;
17424;SDS011;8830;50.978;5.058;2023-04-25T06:13:26;24.90;;;7.20;;
17424;SDS011;8830;50.978;5.058;2023-04-25T06:15:53;26.97;;;8.00;;
17424;SDS011;8830;50.978;5.058;2023-04-25T06:18:20;25.60;;;7.07;;
17424;SDS011;8830;50.978;5.058;2023-04-25T06:20:47;16.00;;;7.20;;
17424;SDS011;8830;50.978;5.058;2023-04-25T06:23:15;16.87;;;6.60;;
17424;SDS011;8830;50.978;5.058;2023-04-25T06:25:43;14.33;;;6.37;;
17424;SDS011;8830;50.978;5.058;2023-04-25T06:28:10;17.43;;;6.70;;
17424;SDS011;8830;50.978;5.058;2023-04-25T06:30:41;24.50;;;7.97;;
17424;SDS011;8830;50.978;5.058;2023-04-25T06:33:08;20.97;;;6.90;;
17424;SDS011;8830;50.978;5.058;2023-04-25T06:35:35;18.53;;;6.43;;
17424;SDS011;8830;50.978;5.058;2023-04-25T06:38:05;17.40;;;6.67;;
17424;SDS011;8830;50.978;5.058;2023-04-25T06:40:32;10.23;;;6.07;;
17424;SDS011;8830;50.978;5.058;2023-04-25T06:42:59;18.23;;;5.77;;
17424;SDS011;8830;50.978;5.058;2023-04-25T06:45:27;21.70;;;6.33;;
17424;SDS011;8830;50.978;5.058;2023-04-25T06:47:55;17.87;;;6.70;;
17424;SDS011;8830;50.978;5.058;2023-04-25T06:50:23;22.67;;;5.67;;
17424;SDS011;8830;50.978;5.058;2023-04-25T06:52:51;14.43;;;5.20;;
17424;SDS011;8830;50.978;5.058;2023-04-25T06:55:18;27.97;;;6.17;;
17424;SDS011;8830;50.978;5.058;2023-04-25T06:57:46;11.27;;;4.80;;
17424;SDS011;8830;50.978;5.058;2023-04-25T07:00:14;13.00;;;4.47;;
17424;SDS011;8830;50.978;5.058;2023-04-25T07:02:41;18.97;;;5.27;;
17424;SDS011;8830;50.978;5.058;2023-04-25T07:05:10;12.87;;;4.53;;
17424;SDS011;8830;50.978;5.058;2023-04-25T07:07:37;15.93;;;4.93;;
17424;SDS011;8830;50.978;5.058;2023-04-25T07:10:05;13.07;;;4.30;;
17424;SDS011;8830;50.978;5.058;2023-04-25T07:12:32;13.10;;;4.53;;
17424;SDS011;8830;50.978;5.058;2023-04-25T07:15:00;13.60;;;4.30;;
17424;SDS011;8830;50.978;5.058;2023-04-25T07:17:31;15.03;;;4.37;;
17424;SDS011;8830;50.978;5.058;2023-04-25T07:19:59;16.80;;;4.80;;
17424;SDS011;8830;50.978;5.058;2023-04-25T07:22:28;10.20;;;4.43;;
17424;SDS011;8830;50.978;5.058;2023-04-25T07:24:55;10.30;;;3.90;;
17424;SDS011;8830;50.978;5.058;2023-04-25T07:27:22;11.30;;;3.20;;
17424;SDS011;8830;50.978;5.058;2023-04-25T07:29:49;15.93;;;4.17;;
17424;SDS011;8830;50.978;5.058;2023-04-25T07:32:17;8.50;;;3.17;;
17424;SDS011;8830;50.978;5.058;2023-04-25T07:34:45;11.70;;;4.23;;
17424;SDS011;8830;50.978;5.058;2023-04-25T07:37:12;14.30;;;3.60;;
17424;SDS011;8830;50.978;5.058;2023-04-25T07:39:45;10.27;;;2.80;;
17424;SDS011;8830;50.978;5.058;2023-04-25T07:42:12;12.43;;;3.57;;
17424;SDS011;8830;50.978;5.058;2023-04-25T07:44:42;7.23;;;3.00;;
17424;SDS011;8830;50.978;5.058;2023-04-25T07:47:09;12.70;;;3.10;;
17424;SDS011;8830;50.978;5.058;2023-04-25T07:49:36;12.20;;;3.47;;
17424;SDS011;8830;50.978;5.058;2023-04-25T07:52:04;6.43;;;2.60;;
17424;SDS011;8830;50.978;5.058;2023-04-25T07:54:32;12.07;;;2.83;;
17424;SDS011;8830;50.978;5.058;2023-04-25T07:57:01;8.93;;;2.63;;
17424;SDS011;8830;50.978;5.058;2023-04-25T07:59:28;12.33;;;2.97;;
17424;SDS011;8830;50.978;5.058;2023-04-25T08:01:55;8.87;;;2.63;;
17424;SDS011;8830;50.978;5.058;2023-04-25T08:04:23;8.20;;;2.10;;
17424;SDS011;8830;50.978;5.058;2023-04-25T08:06:51;8.07;;;2.93;;
17424;SDS011;8830;50.978;5.058;2023-04-25T08:09:18;8.10;;;2.87;;
17424;SDS011;8830;50.978;5.058;2023-04-25T08:11:46;16.33;;;3.27;;
17424;SDS011;8830;50.978;5.058;2023-04-25T08:14:14;15.17;;;3.30;;
17424;SDS011;8830;50.978;5.058;2023-04-25T08:16:42;8.40;;;3.03;;
17424;SDS011;8830;50.978;5.058;2023-04-25T08:19:09;10.37;;;3.30;;
17424;SDS011;8830;50.978;5.058;2023-04-25T08:21:37;8.00;;;2.67;;
17424;SDS011;8830;50.978;5.058;2023-04-25T08:24:06;4.73;;;2.10;;
17424;SDS011;8830;50.978;5.058;2023-04-25T08:26:33;8.70;;;3.13;;
17424;SDS011;8830;50.978;5.058;2023-04-25T08:29:02;5.77;;;2.20;;
17424;SDS011;8830;50.978;5.058;2023-04-25T08:31:31;7.10;;;2.53;;
17424;SDS011;8830;50.978;5.058;2023-04-25T08:33:59;5.77;;;2.07;;
17424;SDS011;8830;50.978;5.058;2023-04-25T08:36:26;5.17;;;2.20;;
17424;SDS011;8830;50.978;5.058;2023-04-25T08:38:54;4.10;;;2.10;;
17424;SDS011;8830;50.978;5.058;2023-04-25T08:41:21;8.33;;;2.47;;
17424;SDS011;8830;50.978;5.058;2023-04-25T08:43:49;4.90;;;1.87;;
17424;SDS011;8830;50.978;5.058;2023-04-25T08:46:18;11.57;;;2.30;;
17424;SDS011;8830;50.978;5.058;2023-04-25T08:48:47;13.43;;;2.13;;
17424;SDS011;8830;50.978;5.058;2023-04-25T08:51:15;4.90;;;1.67;;
17424;SDS011;8830;50.978;5.058;2023-04-25T08:53:48;10.40;;;2.50;;
17424;SDS011;8830;50.978;5.058;2023-04-25T08:56:17;6.23;;;2.10;;
17424;SDS011;8830;50.978;5.058;2023-04-25T08:58:48;4.17;;;1.87;;
17424;SDS011;8830;50.978;5.058;2023-04-25T09:01:16;5.57;;;1.43;;
17424;SDS011;8830;50.978;5.058;2023-04-25T09:03:44;7.13;;;1.70;;
17424;SDS011;8830;50.978;5.058;2023-04-25T09:06:13;5.07;;;1.63;;
17424;SDS011;8830;50.978;5.058;2023-04-25T09:08:41;6.47;;;1.70;;
17424;SDS011;8830;50.978;5.058;2023-04-25T09:11:08;6.30;;;1.83;;
17424;SDS011;8830;50.978;5.058;2023-04-25T09:13:36;7.23;;;1.83;;
17424;SDS011;8830;50.978;5.058;2023-04-25T09:16:03;10.30;;;2.23;;
17424;SDS011;8830;50.978;5.058;2023-04-25T09:18:30;6.80;;;1.97;;
17424;SDS011;8830;50.978;5.058;2023-04-25T09:21:04;5.53;;;1.80;;
17424;SDS011;8830;50.978;5.058;2023-04-25T09:23:38;6.57;;;1.80;;
17424;SDS011;8830;50.978;5.058;2023-04-25T09:26:07;6.47;;;2.40;;
17424;SDS011;8830;50.978;5.058;2023-04-25T09:28:34;7.97;;;1.77;;
17424;SDS011;8830;50.978;5.058;2023-04-25T09:31:03;7.77;;;2.10;;
17424;SDS011;8830;50.978;5.058;2023-04-25T09:33:30;5.27;;;1.97;;
17424;SDS011;8830;50.978;5.058;2023-04-25T09:36:03;6.33;;;1.70;;
17424;SDS011;8830;50.978;5.058;2023-04-25T09:38:32;7.43;;;2.07;;
17424;SDS011;8830;50.978;5.058;2023-04-25T09:41:07;9.73;;;1.70;;
17424;SDS011;8830;50.978;5.058;2023-04-25T09:43:34;5.43;;;1.97;;
17424;SDS011;8830;50.978;5.058;2023-04-25T09:46:01;2.63;;;1.27;;
17424;SDS011;8830;50.978;5.058;2023-04-25T09:48:29;2.73;;;1.53;;
17424;SDS011;8830;50.978;5.058;2023-04-25T09:51:08;5.90;;;1.60;;
17424;SDS011;8830;50.978;5.058;2023-04-25T09:53:37;7.20;;;2.10;;
17424;SDS011;8830;50.978;5.058;2023-04-25T09:56:05;5.27;;;1.73;;
17424;SDS011;8830;50.978;5.058;2023-04-25T09:58:34;3.63;;;1.77;;
17424;SDS011;8830;50.978;5.058;2023-04-25T10:01:03;4.43;;;1.83;;
17424;SDS011;8830;50.978;5.058;2023-04-25T10:03:32;6.10;;;2.00;;
17424;SDS011;8830;50.978;5.058;2023-04-25T10:06:00;6.63;;;2.03;;
17424;SDS011;8830;50.978;5.058;2023-04-25T10:08:31;9.50;;;2.30;;
17424;SDS011;8830;50.978;5.058;2023-04-25T10:11:00;5.40;;;1.60;;
17424;SDS011;8830;50.978;5.058;2023-04-25T10:13:28;5.30;;;2.10;;
17424;SDS011;8830;50.978;5.058;2023-04-25T10:15:57;6.43;;;2.00;;
17424;SDS011;8830;50.978;5.058;2023-04-25T10:18:25;7.80;;;2.10;;
17424;SDS011;8830;50.978;5.058;2023-04-25T10:20:53;3.90;;;2.13;;
17424;SDS011;8830;50.978;5.058;2023-04-25T10:23:21;6.17;;;2.80;;
17424;SDS011;8830;50.978;5.058;2023-04-25T10:25:51;7.47;;;2.23;;
17424;SDS011;8830;50.978;5.058;2023-04-25T10:28:19;4.03;;;2.10;;
17424;SDS011;8830;50.978;5.058;2023-04-25T10:30:57;4.70;;;1.83;;
17424;SDS011;8830;50.978;5.058;2023-04-25T10:33:34;6.17;;;1.77;;
17424;SDS011;8830;50.978;5.058;2023-04-25T10:36:08;4.57;;;1.30;;
17424;SDS011;8830;50.978;5.058;2023-04-25T10:38:36;6.10;;;2.00;;
17424;SDS011;8830;50.978;5.058;2023-04-25T10:41:06;5.77;;;1.60;;
17424;SDS011;8830;50.978;5.058;2023-04-25T10:43:35;5.10;;;1.13;;
17424;SDS011;8830;50.978;5.058;2023-04-25T10:46:12;7.97;;;1.37;;
17424;SDS011;8830;50.978;5.058;2023-04-25T10:48:47;2.87;;;1.07;;
17424;SDS011;8830;50.978;5.058;2023-04-25T10:51:16;5.70;;;1.10;;
17424;SDS011;8830;50.978;5.058;2023-04-25T10:53:58;3.00;;;1.23;;
17424;SDS011;8830;50.978;5.058;2023-04-25T10:56:31;3.67;;;1.40;;
17424;SDS011;8830;50.978;5.058;2023-04-25T10:59:04;6.30;;;1.53;;
17424;SDS011;8830;50.978;5.058;2023-04-25T11:01:37;1.97;;;1.40;;
17424;SDS011;8830;50.978;5.058;2023-04-25T11:04:05;1.70;;;0.97;;
17424;SDS011;8830;50.978;5.058;2023-04-25T11:06:46;6.87;;;1.50;;
17424;SDS011;8830;50.978;5.058;2023-04-25T11:09:24;5.60;;;1.47;;
17424;SDS011;8830;50.978;5.058;2023-04-25T11:11:54;7.50;;;1.03;;
17424;SDS011;8830;50.978;5.058;2023-04-25T11:14:22;4.63;;;1.27;;
17424;SDS011;8830;50.978;5.058;2023-04-25T11:16:52;5.63;;;1.30;;
17424;SDS011;8830;50.978;5.058;2023-04-25T11:19:20;6.03;;;1.23;;
17424;SDS011;8830;50.978;5.058;2023-04-25T11:21:48;2.43;;;1.07;;
17424;SDS011;8830;50.978;5.058;2023-04-25T11:24:16;3.53;;;1.23;;
17424;SDS011;8830;50.978;5.058;2023-04-25T11:26:46;2.83;;;1.00;;
17424;SDS011;8830;50.978;5.058;2023-04-25T11:29:15;2.63;;;0.80;;
17424;SDS011;8830;50.978;5.058;2023-04-25T11:31:43;3.30;;;1.17;;
17424;SDS011;8830;50.978;5.058;2023-04-25T11:34:16;3.63;;;1.53;;
17424;SDS011;8830;50.978;5.058;2023-04-25T11:36:43;2.83;;;1.20;;
17424;SDS011;8830;50.978;5.058;2023-04-25T11:39:11;4.37;;;1.30;;
17424;SDS011;8830;50.978;5.058;2023-04-25T11:41:40;3.33;;;1.13;;
17424;SDS011;8830;50.978;5.058;2023-04-25T11:44:08;6.67;;;1.50;;
17424;SDS011;8830;50.978;5.058;2023-04-25T11:46:36;4.27;;;1.20;;
17424;SDS011;8830;50.978;5.058;2023-04-25T11:49:03;3.77;;;1.50;;
17424;SDS011;8830;50.978;5.058;2023-04-25T11:51:37;5.97;;;1.30;;
17424;SDS011;8830;50.978;5.058;2023-04-25T11:54:05;5.23;;;1.60;;
17424;SDS011;8830;50.978;5.058;2023-04-25T11:56:33;5.90;;;2.00;;
17424;SDS011;8830;50.978;5.058;2023-04-25T11:59:01;5.37;;;1.70;;
17424;SDS011;8830;50.978;5.058;2023-04-25T12:01:30;3.53;;;1.90;;
17424;SDS011;8830;50.978;5.058;2023-04-25T12:04:09;3.00;;;1.53;;
17424;SDS011;8830;50.978;5.058;2023-04-25T12:06:38;6.83;;;1.70;;
17424;SDS011;8830;50.978;5.058;2023-04-25T12:09:07;14.97;;;2.43;;
17424;SDS011;8830;50.978;5.058;2023-04-25T12:11:40;5.00;;;1.70;;
17424;SDS011;8830;50.978;5.058;2023-04-25T12:14:08;5.40;;;1.87;;
17424;SDS011;8830;50.978;5.058;2023-04-25T12:16:42;4.10;;;1.70;;
17424;SDS011;8830;50.978;5.058;2023-04-25T12:19:15;8.50;;;1.97;;
17424;SDS011;8830;50.978;5.058;2023-04-25T12:21:43;9.00;;;2.10;;
17424;SDS011;8830;50.978;5.058;2023-04-25T12:24:11;4.10;;;1.33;;
17424;SDS011;8830;50.978;5.058;2023-04-25T12:26:49;5.70;;;1.70;;
17424;SDS011;8830;50.978;5.058;2023-04-25T12:29:23;5.43;;;1.33;;
17424;SDS011;8830;50.978;5.058;2023-04-25T12:31:53;14.67;;;2.00;;
17424;SDS011;8830;50.978;5.058;2023-04-25T12:34:22;5.00;;;1.70;;
17424;SDS011;8830;50.978;5.058;2023-04-25T12:36:50;10.67;;;2.00;;
17424;SDS011;8830;50.978;5.058;2023-04-25T12:39:19;6.43;;;1.77;;
17424;SDS011;8830;50.978;5.058;2023-04-25T12:41:47;4.97;;;1.43;;
17424;SDS011;8830;50.978;5.058;2023-04-25T12:44:14;5.90;;;1.97;;
17424;SDS011;8830;50.978;5.058;2023-04-25T12:46:43;6.20;;;2.07;;
17424;SDS011;8830;50.978;5.058;2023-04-25T12:49:10;10.57;;;1.90;;
17424;SDS011;8830;50.978;5.058;2023-04-25T12:51:39;3.33;;;1.40;;
17424;SDS011;8830;50.978;5.058;2023-04-25T12:54:07;3.83;;;1.47;;
17424;SDS011;8830;50.978;5.058;2023-04-25T12:56:34;5.37;;;1.93;;
17424;SDS011;8830;50.978;5.058;2023-04-25T12:59:02;3.33;;;1.40;;
17424;SDS011;8830;50.978;5.058;2023-04-25T13:01:29;3.67;;;1.53;;
17424;SDS011;8830;50.978;5.058;2023-04-25T13:03:57;3.63;;;1.27;;
17424;SDS011;8830;50.978;5.058;2023-04-25T13:06:24;3.83;;;1.40;;
17424;SDS011;8830;50.978;5.058;2023-04-25T13:08:52;7.47;;;1.53;;
17424;SDS011;8830;50.978;5.058;2023-04-25T13:11:19;6.43;;;1.67;;
17424;SDS011;8830;50.978;5.058;2023-04-25T13:13:46;5.47;;;1.60;;
17424;SDS011;8830;50.978;5.058;2023-04-25T13:16:14;4.40;;;1.20;;
17424;SDS011;8830;50.978;5.058;2023-04-25T13:18:41;2.77;;;1.23;;
17424;SDS011;8830;50.978;5.058;2023-04-25T13:21:09;28.13;;;2.73;;
17424;SDS011;8830;50.978;5.058;2023-04-25T13:23:37;3.20;;;1.20;;
17424;SDS011;8830;50.978;5.058;2023-04-25T13:26:05;2.63;;;1.00;;
17424;SDS011;8830;50.978;5.058;2023-04-25T13:28:33;8.13;;;1.20;;
17424;SDS011;8830;50.978;5.058;2023-04-25T13:31:00;3.90;;;0.90;;
17424;SDS011;8830;50.978;5.058;2023-04-25T13:33:27;3.77;;;1.10;;
17424;SDS011;8830;50.978;5.058;2023-04-25T13:35:54;2.17;;;1.37;;
17424;SDS011;8830;50.978;5.058;2023-04-25T13:38:22;2.93;;;1.00;;
17424;SDS011;8830;50.978;5.058;2023-04-25T13:40:50;3.23;;;1.23;;
17424;SDS011;8830;50.978;5.058;2023-04-25T13:43:20;7.23;;;1.40;;
17424;SDS011;8830;50.978;5.058;2023-04-25T13:45:48;2.87;;;1.00;;
17424;SDS011;8830;50.978;5.058;2023-04-25T13:48:15;2.90;;;1.03;;
17424;SDS011;8830;50.978;5.058;2023-04-25T13:50:43;1.87;;;0.80;;
17424;SDS011;8830;50.978;5.058;2023-04-25T13:53:10;2.53;;;0.90;;
17424;SDS011;8830;50.978;5.058;2023-04-25T13:55:37;3.20;;;0.63;;
17424;SDS011;8830;50.978;5.058;2023-04-25T13:58:05;2.73;;;1.17;;
17424;SDS011;8830;50.978;5.058;2023-04-25T14:00:37;1.10;;;0.73;;
17424;SDS011;8830;50.978;5.058;2023-04-25T14:03:05;5.43;;;1.00;;
17424;SDS011;8830;50.978;5.058;2023-04-25T14:05:33;1.20;;;0.70;;
17424;SDS011;8830;50.978;5.058;2023-04-25T14:08:05;4.03;;;1.10;;
17424;SDS011;8830;50.978;5.058;2023-04-25T14:10:32;2.53;;;0.80;;
17424;SDS011;8830;50.978;5.058;2023-04-25T14:13:00;8.53;;;1.23;;
17424;SDS011;8830;50.978;5.058;2023-04-25T14:15:28;2.60;;;0.93;;
17424;SDS011;8830;50.978;5.058;2023-04-25T14:17:58;2.63;;;1.13;;
17424;SDS011;8830;50.978;5.058;2023-04-25T14:20:26;2.23;;;1.40;;
17424;SDS011;8830;50.978;5.058;2023-04-25T14:22:53;3.73;;;0.90;;
17424;SDS011;8830;50.978;5.058;2023-04-25T14:25:21;2.13;;;1.17;;
17424;SDS011;8830;50.978;5.058;2023-04-25T14:27:48;3.20;;;0.77;;
17424;SDS011;8830;50.978;5.058;2023-04-25T14:30:16;1.90;;;0.97;;
17424;SDS011;8830;50.978;5.058;2023-04-25T14:32:43;2.57;;;0.87;;
17424;SDS011;8830;50.978;5.058;2023-04-25T14:35:12;1.40;;;1.13;;
17424;SDS011;8830;50.978;5.058;2023-04-25T14:37:40;4.33;;;1.00;;
17424;SDS011;8830;50.978;5.058;2023-04-25T14:40:09;1.77;;;0.80;;
17424;SDS011;8830;50.978;5.058;2023-04-25T14:42:38;2.83;;;0.83;;
17424;SDS011;8830;50.978;5.058;2023-04-25T14:45:05;5.80;;;1.47;;
17424;SDS011;8830;50.978;5.058;2023-04-25T14:47:34;2.50;;;1.00;;
17424;SDS011;8830;50.978;5.058;2023-04-25T14:50:02;3.07;;;1.00;;
17424;SDS011;8830;50.978;5.058;2023-04-25T14:55:00;5.43;;;1.90;;
17424;SDS011;8830;50.978;5.058;2023-04-25T14:57:30;2.17;;;1.00;;
17424;SDS011;8830;50.978;5.058;2023-04-25T14:59:57;3.13;;;0.93;;
17424;SDS011;8830;50.978;5.058;2023-04-25T15:02:24;2.53;;;1.03;;
17424;SDS011;8830;50.978;5.058;2023-04-25T15:04:52;2.43;;;0.80;;